Valle Escondido, New Mexico
Current Conditions -  °F | °C
As of 5:55 PM on Saturday 25 Oct 2014 (Local Time) from KSKX Reporting Station
Clear Clear  
Wind Chill: 70°   Ceiling: Unl
Heat Index: 70°   Visibility: 10mi
Dew Point: 21°   Wind: 9mph
Humidity: 16%   Direction: 230°SW
Pressure: 30.25"   Gusts: NA
Location:  36.4227°N, 105.509°W
Report Text: KSKX 252355Z AUTO 23008KT 10SM CLR 21/M06 A3025 RMK AO1 10240 20180 402401020 57017
Loading
Personal Weather Stations






























Interactive Weather Map
Tropical Storm Tracking
New forecast layout! Learn more

10-Day Weather Forecast

Advertisements
Track Severe Weather on mobile